sensor_id;sensor_type;location;lat;lon;timestamp;P1;durP1;ratioP1;P2;durP2;ratioP2
80494;SDS011;69819;48.798;11.770;2023-08-01T00:01:31;1.90;;;1.70;;
80494;SDS011;69819;48.798;11.770;2023-08-01T00:03:57;3.03;;;1.60;;
80494;SDS011;69819;48.798;11.770;2023-08-01T00:06:23;2.60;;;1.58;;
80494;SDS011;69819;48.798;11.770;2023-08-01T00:08:50;2.30;;;1.70;;
80494;SDS011;69819;48.798;11.770;2023-08-01T00:11:16;2.58;;;1.73;;
80494;SDS011;69819;48.798;11.770;2023-08-01T00:13:42;2.50;;;1.58;;
80494;SDS011;69819;48.798;11.770;2023-08-01T00:16:08;2.03;;;1.40;;
80494;SDS011;69819;48.798;11.770;2023-08-01T00:18:35;1.75;;;1.27;;
80494;SDS011;69819;48.798;11.770;2023-08-01T00:21:01;2.00;;;1.42;;
80494;SDS011;69819;48.798;11.770;2023-08-01T00:23:28;1.45;;;1.35;;
80494;SDS011;69819;48.798;11.770;2023-08-01T00:25:53;1.67;;;1.52;;
80494;SDS011;69819;48.798;11.770;2023-08-01T00:28:21;1.42;;;1.33;;
80494;SDS011;69819;48.798;11.770;2023-08-01T00:30:47;1.90;;;1.63;;
80494;SDS011;69819;48.798;11.770;2023-08-01T00:33:13;1.50;;;1.40;;
80494;SDS011;69819;48.798;11.770;2023-08-01T00:35:40;2.60;;;1.40;;
80494;SDS011;69819;48.798;11.770;2023-08-01T00:38:06;1.65;;;1.33;;
80494;SDS011;69819;48.798;11.770;2023-08-01T00:40:32;1.50;;;1.38;;
80494;SDS011;69819;48.798;11.770;2023-08-01T00:42:59;2.95;;;1.40;;
80494;SDS011;69819;48.798;11.770;2023-08-01T00:45:28;1.90;;;1.63;;
80494;SDS011;69819;48.798;11.770;2023-08-01T00:47:55;2.28;;;1.63;;
80494;SDS011;69819;48.798;11.770;2023-08-01T00:50:22;1.60;;;1.50;;
80494;SDS011;69819;48.798;11.770;2023-08-01T00:52:49;2.28;;;1.63;;
80494;SDS011;69819;48.798;11.770;2023-08-01T00:55:17;1.45;;;1.35;;
80494;SDS011;69819;48.798;11.770;2023-08-01T00:57:43;1.50;;;1.35;;
80494;SDS011;69819;48.798;11.770;2023-08-01T01:00:10;2.17;;;1.75;;
80494;SDS011;69819;48.798;11.770;2023-08-01T01:02:36;2.53;;;1.65;;
80494;SDS011;69819;48.798;11.770;2023-08-01T01:05:03;2.97;;;1.60;;
80494;SDS011;69819;48.798;11.770;2023-08-01T01:07:30;2.42;;;1.50;;
80494;SDS011;69819;48.798;11.770;2023-08-01T01:09:57;1.67;;;1.58;;
80494;SDS011;69819;48.798;11.770;2023-08-01T01:12:24;2.20;;;1.45;;
80494;SDS011;69819;48.798;11.770;2023-08-01T01:14:49;2.80;;;1.63;;
80494;SDS011;69819;48.798;11.770;2023-08-01T01:17:15;2.10;;;1.90;;
80494;SDS011;69819;48.798;11.770;2023-08-01T01:19:41;3.53;;;1.80;;
80494;SDS011;69819;48.798;11.770;2023-08-01T01:22:07;3.08;;;1.83;;
80494;SDS011;69819;48.798;11.770;2023-08-01T01:24:36;2.38;;;1.73;;
80494;SDS011;69819;48.798;11.770;2023-08-01T01:27:06;2.15;;;1.13;;
80494;SDS011;69819;48.798;11.770;2023-08-01T01:29:35;2.40;;;1.55;;
80494;SDS011;69819;48.798;11.770;2023-08-01T01:32:03;1.98;;;1.55;;
80494;SDS011;69819;48.798;11.770;2023-08-01T01:34:31;1.63;;;1.48;;
80494;SDS011;69819;48.798;11.770;2023-08-01T01:36:57;2.60;;;1.63;;
80494;SDS011;69819;48.798;11.770;2023-08-01T01:39:23;1.58;;;1.48;;
80494;SDS011;69819;48.798;11.770;2023-08-01T01:41:49;1.75;;;1.58;;
80494;SDS011;69819;48.798;11.770;2023-08-01T01:44:15;1.80;;;1.60;;
80494;SDS011;69819;48.798;11.770;2023-08-01T01:46:41;1.88;;;1.60;;
80494;SDS011;69819;48.798;11.770;2023-08-01T01:49:06;2.75;;;1.60;;
80494;SDS011;69819;48.798;11.770;2023-08-01T01:51:32;1.50;;;1.40;;
80494;SDS011;69819;48.798;11.770;2023-08-01T01:53:58;1.55;;;1.45;;
80494;SDS011;69819;48.798;11.770;2023-08-01T01:56:24;2.60;;;1.73;;
80494;SDS011;69819;48.798;11.770;2023-08-01T01:58:50;1.88;;;1.60;;
80494;SDS011;69819;48.798;11.770;2023-08-01T02:01:16;2.05;;;1.67;;
80494;SDS011;69819;48.798;11.770;2023-08-01T02:03:42;2.55;;;1.83;;
80494;SDS011;69819;48.798;11.770;2023-08-01T02:06:08;1.63;;;1.50;;
80494;SDS011;69819;48.798;11.770;2023-08-01T02:08:34;1.90;;;1.70;;
80494;SDS011;69819;48.798;11.770;2023-08-01T02:11:00;1.77;;;1.63;;
80494;SDS011;69819;48.798;11.770;2023-08-01T02:13:26;2.47;;;1.75;;
80494;SDS011;69819;48.798;11.770;2023-08-01T02:15:53;1.95;;;1.70;;
80494;SDS011;69819;48.798;11.770;2023-08-01T02:18:19;1.63;;;1.52;;
80494;SDS011;69819;48.798;11.770;2023-08-01T02:20:46;1.50;;;1.35;;
80494;SDS011;69819;48.798;11.770;2023-08-01T02:23:12;1.90;;;1.48;;
80494;SDS011;69819;48.798;11.770;2023-08-01T02:25:38;1.70;;;1.60;;
80494;SDS011;69819;48.798;11.770;2023-08-01T02:28:07;2.10;;;1.67;;
80494;SDS011;69819;48.798;11.770;2023-08-01T02:30:34;1.85;;;1.60;;
80494;SDS011;69819;48.798;11.770;2023-08-01T02:33:01;2.65;;;1.77;;
80494;SDS011;69819;48.798;11.770;2023-08-01T02:35:27;1.60;;;1.42;;
80494;SDS011;69819;48.798;11.770;2023-08-01T02:37:54;3.15;;;1.60;;
80494;SDS011;69819;48.798;11.770;2023-08-01T02:40:20;2.35;;;1.60;;
80494;SDS011;69819;48.798;11.770;2023-08-01T02:42:46;1.65;;;1.55;;
80494;SDS011;69819;48.798;11.770;2023-08-01T02:45:12;2.15;;;1.95;;
80494;SDS011;69819;48.798;11.770;2023-08-01T02:47:38;1.80;;;1.55;;
80494;SDS011;69819;48.798;11.770;2023-08-01T02:50:04;1.65;;;1.40;;
80494;SDS011;69819;48.798;11.770;2023-08-01T02:52:31;1.60;;;1.48;;
80494;SDS011;69819;48.798;11.770;2023-08-01T02:54:57;2.30;;;1.48;;
80494;SDS011;69819;48.798;11.770;2023-08-01T02:57:23;1.92;;;1.45;;
80494;SDS011;69819;48.798;11.770;2023-08-01T02:59:49;2.90;;;1.88;;
80494;SDS011;69819;48.798;11.770;2023-08-01T03:02:15;2.05;;;1.70;;
80494;SDS011;69819;48.798;11.770;2023-08-01T03:04:42;2.08;;;1.70;;
80494;SDS011;69819;48.798;11.770;2023-08-01T03:07:08;2.47;;;1.52;;
80494;SDS011;69819;48.798;11.770;2023-08-01T03:09:34;1.90;;;1.67;;
80494;SDS011;69819;48.798;11.770;2023-08-01T03:11:59;2.03;;;1.42;;
80494;SDS011;69819;48.798;11.770;2023-08-01T03:14:25;1.38;;;1.20;;
80494;SDS011;69819;48.798;11.770;2023-08-01T03:16:51;1.90;;;1.58;;
80494;SDS011;69819;48.798;11.770;2023-08-01T03:19:17;1.52;;;1.42;;
80494;SDS011;69819;48.798;11.770;2023-08-01T03:21:43;2.17;;;1.58;;
80494;SDS011;69819;48.798;11.770;2023-08-01T03:24:09;1.92;;;1.70;;
80494;SDS011;69819;48.798;11.770;2023-08-01T03:26:35;1.30;;;1.20;;
80494;SDS011;69819;48.798;11.770;2023-08-01T03:29:02;2.80;;;1.70;;
80494;SDS011;69819;48.798;11.770;2023-08-01T03:31:30;1.27;;;1.17;;
80494;SDS011;69819;48.798;11.770;2023-08-01T03:33:56;2.28;;;1.38;;
80494;SDS011;69819;48.798;11.770;2023-08-01T03:36:23;1.40;;;1.27;;
80494;SDS011;69819;48.798;11.770;2023-08-01T03:38:50;1.60;;;1.40;;
80494;SDS011;69819;48.798;11.770;2023-08-01T03:41:16;2.20;;;1.60;;
80494;SDS011;69819;48.798;11.770;2023-08-01T03:43:42;1.52;;;1.42;;
80494;SDS011;69819;48.798;11.770;2023-08-01T03:46:09;1.80;;;1.50;;
80494;SDS011;69819;48.798;11.770;2023-08-01T03:48:34;1.85;;;1.50;;
80494;SDS011;69819;48.798;11.770;2023-08-01T03:51:00;1.48;;;1.38;;
80494;SDS011;69819;48.798;11.770;2023-08-01T03:53:29;1.73;;;1.52;;
80494;SDS011;69819;48.798;11.770;2023-08-01T03:55:55;3.33;;;1.50;;
80494;SDS011;69819;48.798;11.770;2023-08-01T03:58:21;2.35;;;1.85;;
80494;SDS011;69819;48.798;11.770;2023-08-01T04:00:47;1.75;;;1.65;;
80494;SDS011;69819;48.798;11.770;2023-08-01T04:03:13;1.92;;;1.73;;
80494;SDS011;69819;48.798;11.770;2023-08-01T04:05:39;4.68;;;1.88;;
80494;SDS011;69819;48.798;11.770;2023-08-01T04:08:04;2.10;;;1.90;;
80494;SDS011;69819;48.798;11.770;2023-08-01T04:10:32;2.50;;;1.90;;
80494;SDS011;69819;48.798;11.770;2023-08-01T04:12:57;2.00;;;1.80;;
80494;SDS011;69819;48.798;11.770;2023-08-01T04:15:23;2.67;;;1.90;;
80494;SDS011;69819;48.798;11.770;2023-08-01T04:17:49;3.55;;;2.28;;
80494;SDS011;69819;48.798;11.770;2023-08-01T04:20:15;2.60;;;1.80;;
80494;SDS011;69819;48.798;11.770;2023-08-01T04:22:41;2.78;;;1.98;;
80494;SDS011;69819;48.798;11.770;2023-08-01T04:25:07;2.08;;;1.88;;
80494;SDS011;69819;48.798;11.770;2023-08-01T04:27:33;1.88;;;1.77;;
80494;SDS011;69819;48.798;11.770;2023-08-01T04:29:59;2.78;;;1.98;;
80494;SDS011;69819;48.798;11.770;2023-08-01T04:32:25;2.53;;;2.10;;
80494;SDS011;69819;48.798;11.770;2023-08-01T04:34:51;3.50;;;2.20;;
80494;SDS011;69819;48.798;11.770;2023-08-01T04:37:17;4.10;;;2.28;;
80494;SDS011;69819;48.798;11.770;2023-08-01T04:39:45;1.75;;;1.52;;
80494;SDS011;69819;48.798;11.770;2023-08-01T04:42:12;2.10;;;1.90;;
80494;SDS011;69819;48.798;11.770;2023-08-01T04:44:38;2.35;;;1.77;;
80494;SDS011;69819;48.798;11.770;2023-08-01T04:47:04;2.38;;;1.88;;
80494;SDS011;69819;48.798;11.770;2023-08-01T04:49:30;2.45;;;2.03;;
80494;SDS011;69819;48.798;11.770;2023-08-01T04:51:56;2.78;;;2.00;;
80494;SDS011;69819;48.798;11.770;2023-08-01T04:54:22;2.22;;;1.70;;
80494;SDS011;69819;48.798;11.770;2023-08-01T04:56:48;2.53;;;1.92;;
80494;SDS011;69819;48.798;11.770;2023-08-01T04:59:13;2.35;;;2.15;;
80494;SDS011;69819;48.798;11.770;2023-08-01T05:01:39;3.33;;;1.92;;
80494;SDS011;69819;48.798;11.770;2023-08-01T05:04:05;2.50;;;1.98;;
80494;SDS011;69819;48.798;11.770;2023-08-01T05:06:31;2.45;;;1.60;;
80494;SDS011;69819;48.798;11.770;2023-08-01T05:08:57;2.17;;;1.98;;
80494;SDS011;69819;48.798;11.770;2023-08-01T05:11:23;3.33;;;1.98;;
80494;SDS011;69819;48.798;11.770;2023-08-01T05:13:49;2.60;;;2.10;;
80494;SDS011;69819;48.798;11.770;2023-08-01T05:16:15;2.38;;;1.73;;
80494;SDS011;69819;48.798;11.770;2023-08-01T05:18:41;3.22;;;1.83;;
80494;SDS011;69819;48.798;11.770;2023-08-01T05:21:07;2.03;;;1.60;;
80494;SDS011;69819;48.798;11.770;2023-08-01T05:23:33;2.20;;;1.80;;
80494;SDS011;69819;48.798;11.770;2023-08-01T05:25:59;1.67;;;1.55;;
80494;SDS011;69819;48.798;11.770;2023-08-01T05:28:24;2.17;;;1.98;;
80494;SDS011;69819;48.798;11.770;2023-08-01T05:30:50;2.13;;;1.77;;
80494;SDS011;69819;48.798;11.770;2023-08-01T05:33:17;2.05;;;1.50;;
80494;SDS011;69819;48.798;11.770;2023-08-01T05:35:43;3.00;;;1.60;;
80494;SDS011;69819;48.798;11.770;2023-08-01T05:38:09;2.10;;;1.90;;
80494;SDS011;69819;48.798;11.770;2023-08-01T05:40:35;1.95;;;1.60;;
80494;SDS011;69819;48.798;11.770;2023-08-01T05:43:01;2.40;;;1.80;;
80494;SDS011;69819;48.798;11.770;2023-08-01T05:45:29;2.03;;;1.85;;
80494;SDS011;69819;48.798;11.770;2023-08-01T05:47:55;2.13;;;1.67;;
80494;SDS011;69819;48.798;11.770;2023-08-01T05:50:21;1.95;;;1.60;;
80494;SDS011;69819;48.798;11.770;2023-08-01T05:52:47;2.33;;;1.98;;
80494;SDS011;69819;48.798;11.770;2023-08-01T05:55:12;2.58;;;1.92;;
80494;SDS011;69819;48.798;11.770;2023-08-01T05:57:38;2.45;;;1.70;;
80494;SDS011;69819;48.798;11.770;2023-08-01T06:00:04;2.60;;;2.10;;
80494;SDS011;69819;48.798;11.770;2023-08-01T06:02:31;2.28;;;2.00;;
80494;SDS011;69819;48.798;11.770;2023-08-01T06:04:57;2.75;;;2.13;;
80494;SDS011;69819;48.798;11.770;2023-08-01T06:07:23;1.85;;;1.70;;
80494;SDS011;69819;48.798;11.770;2023-08-01T06:09:49;2.03;;;1.55;;
80494;SDS011;69819;48.798;11.770;2023-08-01T06:12:18;2.85;;;2.05;;
80494;SDS011;69819;48.798;11.770;2023-08-01T06:14:44;2.83;;;1.77;;
80494;SDS011;69819;48.798;11.770;2023-08-01T06:17:11;2.28;;;1.75;;
80494;SDS011;69819;48.798;11.770;2023-08-01T06:19:37;2.78;;;1.67;;
80494;SDS011;69819;48.798;11.770;2023-08-01T06:22:03;2.85;;;2.03;;
80494;SDS011;69819;48.798;11.770;2023-08-01T06:24:29;2.53;;;1.65;;
80494;SDS011;69819;48.798;11.770;2023-08-01T06:26:55;2.03;;;1.83;;
80494;SDS011;69819;48.798;11.770;2023-08-01T06:29:21;2.58;;;1.70;;
80494;SDS011;69819;48.798;11.770;2023-08-01T06:31:48;2.20;;;2.00;;
80494;SDS011;69819;48.798;11.770;2023-08-01T06:34:13;2.05;;;1.85;;
80494;SDS011;69819;48.798;11.770;2023-08-01T06:36:39;2.33;;;2.05;;
80494;SDS011;69819;48.798;11.770;2023-08-01T06:39:05;1.85;;;1.50;;
80494;SDS011;69819;48.798;11.770;2023-08-01T06:41:31;2.70;;;2.08;;
80494;SDS011;69819;48.798;11.770;2023-08-01T06:43:57;2.70;;;2.10;;
80494;SDS011;69819;48.798;11.770;2023-08-01T06:46:23;1.88;;;1.65;;
80494;SDS011;69819;48.798;11.770;2023-08-01T06:48:49;1.95;;;1.70;;
80494;SDS011;69819;48.798;11.770;2023-08-01T06:51:14;6.63;;;2.00;;
80494;SDS011;69819;48.798;11.770;2023-08-01T06:53:40;2.22;;;1.90;;
80494;SDS011;69819;48.798;11.770;2023-08-01T06:56:06;1.90;;;1.50;;
80494;SDS011;69819;48.798;11.770;2023-08-01T06:58:32;3.45;;;2.20;;
80494;SDS011;69819;48.798;11.770;2023-08-01T07:00:58;2.22;;;1.73;;
80494;SDS011;69819;48.798;11.770;2023-08-01T07:03:24;4.97;;;2.28;;
80494;SDS011;69819;48.798;11.770;2023-08-01T07:05:49;2.97;;;1.60;;
80494;SDS011;69819;48.798;11.770;2023-08-01T07:08:15;2.42;;;1.70;;
80494;SDS011;69819;48.798;11.770;2023-08-01T07:10:41;3.67;;;1.85;;
80494;SDS011;69819;48.798;11.770;2023-08-01T07:13:07;1.70;;;1.60;;
80494;SDS011;69819;48.798;11.770;2023-08-01T07:15:33;2.15;;;1.95;;
80494;SDS011;69819;48.798;11.770;2023-08-01T07:17:59;2.67;;;1.80;;
80494;SDS011;69819;48.798;11.770;2023-08-01T07:20:25;2.25;;;2.00;;
80494;SDS011;69819;48.798;11.770;2023-08-01T07:22:51;1.80;;;1.70;;
80494;SDS011;69819;48.798;11.770;2023-08-01T07:25:17;2.63;;;1.98;;
80494;SDS011;69819;48.798;11.770;2023-08-01T07:27:44;1.83;;;1.73;;
80494;SDS011;69819;48.798;11.770;2023-08-01T07:30:10;2.40;;;1.85;;
80494;SDS011;69819;48.798;11.770;2023-08-01T07:32:37;2.10;;;1.90;;
80494;SDS011;69819;48.798;11.770;2023-08-01T07:35:04;2.22;;;1.70;;
80494;SDS011;69819;48.798;11.770;2023-08-01T07:37:32;1.65;;;1.55;;
80494;SDS011;69819;48.798;11.770;2023-08-01T07:39:59;1.70;;;1.60;;
80494;SDS011;69819;48.798;11.770;2023-08-01T07:42:24;3.92;;;2.10;;
80494;SDS011;69819;48.798;11.770;2023-08-01T07:44:50;2.45;;;1.85;;
80494;SDS011;69819;48.798;11.770;2023-08-01T07:47:16;2.30;;;2.10;;
80494;SDS011;69819;48.798;11.770;2023-08-01T07:49:42;1.95;;;1.75;;
80494;SDS011;69819;48.798;11.770;2023-08-01T07:52:08;1.85;;;1.73;;
80494;SDS011;69819;48.798;11.770;2023-08-01T07:54:34;1.75;;;1.65;;
80494;SDS011;69819;48.798;11.770;2023-08-01T07:57:00;2.55;;;1.65;;
80494;SDS011;69819;48.798;11.770;2023-08-01T07:59:26;1.95;;;1.80;;
80494;SDS011;69819;48.798;11.770;2023-08-01T08:01:52;1.88;;;1.65;;
80494;SDS011;69819;48.798;11.770;2023-08-01T08:04:18;3.47;;;2.42;;
80494;SDS011;69819;48.798;11.770;2023-08-01T08:06:44;2.00;;;1.80;;
80494;SDS011;69819;48.798;11.770;2023-08-01T08:09:10;2.17;;;1.88;;
80494;SDS011;69819;48.798;11.770;2023-08-01T08:11:36;2.38;;;2.13;;
80494;SDS011;69819;48.798;11.770;2023-08-01T08:14:02;2.00;;;1.90;;
80494;SDS011;69819;48.798;11.770;2023-08-01T08:16:28;3.05;;;1.98;;
80494;SDS011;69819;48.798;11.770;2023-08-01T08:18:55;2.00;;;1.80;;
80494;SDS011;69819;48.798;11.770;2023-08-01T08:21:20;2.38;;;2.15;;
80494;SDS011;69819;48.798;11.770;2023-08-01T08:23:46;2.55;;;1.90;;
80494;SDS011;69819;48.798;11.770;2023-08-01T08:26:12;2.28;;;1.88;;
80494;SDS011;69819;48.798;11.770;2023-08-01T08:28:38;2.50;;;1.73;;
80494;SDS011;69819;48.798;11.770;2023-08-01T08:31:07;1.98;;;1.88;;
80494;SDS011;69819;48.798;11.770;2023-08-01T08:33:32;2.67;;;2.17;;
80494;SDS011;69819;48.798;11.770;2023-08-01T08:35:59;2.17;;;1.85;;
80494;SDS011;69819;48.798;11.770;2023-08-01T08:38:24;2.67;;;2.17;;
80494;SDS011;69819;48.798;11.770;2023-08-01T08:43:36;2.28;;;1.88;;
80494;SDS011;69819;48.798;11.770;2023-08-01T08:46:03;2.15;;;1.95;;
80494;SDS011;69819;48.798;11.770;2023-08-01T08:48:30;2.47;;;2.28;;
80494;SDS011;69819;48.798;11.770;2023-08-01T08:51:00;2.60;;;2.03;;
80494;SDS011;69819;48.798;11.770;2023-08-01T08:53:28;1.88;;;1.67;;
80494;SDS011;69819;48.798;11.770;2023-08-01T08:55:58;2.88;;;2.20;;
80494;SDS011;69819;48.798;11.770;2023-08-01T08:58:25;2.53;;;2.05;;
80494;SDS011;69819;48.798;11.770;2023-08-01T09:00:52;2.58;;;2.03;;
80494;SDS011;69819;48.798;11.770;2023-08-01T09:03:18;2.85;;;2.10;;
80494;SDS011;69819;48.798;11.770;2023-08-01T09:05:46;2.88;;;2.00;;
80494;SDS011;69819;48.798;11.770;2023-08-01T09:08:19;3.15;;;2.25;;
80494;SDS011;69819;48.798;11.770;2023-08-01T09:10:47;2.35;;;1.90;;
80494;SDS011;69819;48.798;11.770;2023-08-01T09:13:13;3.17;;;2.17;;
80494;SDS011;69819;48.798;11.770;2023-08-01T09:15:40;3.33;;;2.40;;
80494;SDS011;69819;48.798;11.770;2023-08-01T09:18:10;3.08;;;2.42;;
80494;SDS011;69819;48.798;11.770;2023-08-01T09:20:46;3.78;;;2.50;;
80494;SDS011;69819;48.798;11.770;2023-08-01T09:23:13;3.42;;;2.58;;
80494;SDS011;69819;48.798;11.770;2023-08-01T09:25:41;4.15;;;2.50;;
80494;SDS011;69819;48.798;11.770;2023-08-01T09:28:18;2.67;;;2.22;;
80494;SDS011;69819;48.798;11.770;2023-08-01T09:30:46;5.25;;;2.55;;
80494;SDS011;69819;48.798;11.770;2023-08-01T09:33:21;3.05;;;2.30;;
80494;SDS011;69819;48.798;11.770;2023-08-01T09:35:49;3.17;;;2.42;;
80494;SDS011;69819;48.798;11.770;2023-08-01T09:38:16;3.25;;;2.20;;
80494;SDS011;69819;48.798;11.770;2023-08-01T09:40:43;3.17;;;2.35;;
80494;SDS011;69819;48.798;11.770;2023-08-01T09:43:13;3.90;;;2.85;;
80494;SDS011;69819;48.798;11.770;2023-08-01T09:45:51;3.15;;;2.50;;
80494;SDS011;69819;48.798;11.770;2023-08-01T09:48:25;3.50;;;2.90;;
80494;SDS011;69819;48.798;11.770;2023-08-01T09:56:23;1.90;;;1.77;;
80494;SDS011;69819;48.798;11.770;2023-08-01T09:58:53;2.00;;;1.80;;
80494;SDS011;69819;48.798;11.770;2023-08-01T10:01:22;2.35;;;1.80;;
80494;SDS011;69819;48.798;11.770;2023-08-01T10:03:50;2.15;;;1.77;;
80494;SDS011;69819;48.798;11.770;2023-08-01T10:06:18;2.15;;;1.80;;
80494;SDS011;69819;48.798;11.770;2023-08-01T10:08:53;2.53;;;1.83;;
80494;SDS011;69819;48.798;11.770;2023-08-01T10:11:20;2.30;;;1.90;;
80494;SDS011;69819;48.798;11.770;2023-08-01T10:13:48;2.15;;;1.92;;
80494;SDS011;69819;48.798;11.770;2023-08-01T10:16:15;2.45;;;1.52;;
80494;SDS011;69819;48.798;11.770;2023-08-01T10:18:42;1.42;;;1.33;;
80494;SDS011;69819;48.798;11.770;2023-08-01T10:21:12;1.80;;;1.70;;
80494;SDS011;69819;48.798;11.770;2023-08-01T10:23:41;1.95;;;1.83;;
80494;SDS011;69819;48.798;11.770;2023-08-01T10:26:10;1.83;;;1.60;;
80494;SDS011;69819;48.798;11.770;2023-08-01T10:28:39;1.98;;;1.50;;
80494;SDS011;69819;48.798;11.770;2023-08-01T10:31:10;2.15;;;1.92;;
80494;SDS011;69819;48.798;11.770;2023-08-01T10:33:47;2.57;;;1.60;;
80494;SDS011;69819;48.798;11.770;2023-08-01T10:38:51;3.08;;;1.98;;
80494;SDS011;69819;48.798;11.770;2023-08-01T10:41:29;2.42;;;2.00;;
80494;SDS011;69819;48.798;11.770;2023-08-01T10:44:10;2.42;;;1.92;;
80494;SDS011;69819;48.798;11.770;2023-08-01T10:52:01;1.98;;;1.77;;
80494;SDS011;69819;48.798;11.770;2023-08-01T10:54:28;2.22;;;1.90;;
80494;SDS011;69819;48.798;11.770;2023-08-01T10:56:55;2.13;;;1.92;;
80494;SDS011;69819;48.798;11.770;2023-08-01T10:59:27;2.42;;;2.00;;
80494;SDS011;69819;48.798;11.770;2023-08-01T11:01:53;3.58;;;1.88;;
80494;SDS011;69819;48.798;11.770;2023-08-01T11:04:25;2.75;;;1.70;;
80494;SDS011;69819;48.798;11.770;2023-08-01T11:06:52;3.25;;;2.40;;
80494;SDS011;69819;48.798;11.770;2023-08-01T11:09:23;2.03;;;1.65;;
80494;SDS011;69819;48.798;11.770;2023-08-01T11:11:52;2.05;;;1.80;;
80494;SDS011;69819;48.798;11.770;2023-08-01T11:14:27;1.77;;;1.67;;
80494;SDS011;69819;48.798;11.770;2023-08-01T11:16:54;2.45;;;1.83;;
80494;SDS011;69819;48.798;11.770;2023-08-01T11:19:25;3.00;;;2.10;;
80494;SDS011;69819;48.798;11.770;2023-08-01T11:21:55;2.10;;;1.90;;
80494;SDS011;69819;48.798;11.770;2023-08-01T11:24:22;2.30;;;1.85;;
80494;SDS011;69819;48.798;11.770;2023-08-01T11:26:50;4.15;;;2.50;;
80494;SDS011;69819;48.798;11.770;2023-08-01T11:29:19;1.80;;;1.70;;
80494;SDS011;69819;48.798;11.770;2023-08-01T11:31:55;2.40;;;1.73;;
80494;SDS011;69819;48.798;11.770;2023-08-01T11:34:24;2.08;;;1.73;;
80494;SDS011;69819;48.798;11.770;2023-08-01T11:36:51;2.95;;;2.00;;
80494;SDS011;69819;48.798;11.770;2023-08-01T11:39:17;2.90;;;1.90;;
80494;SDS011;69819;48.798;11.770;2023-08-01T11:41:44;4.20;;;2.10;;
80494;SDS011;69819;48.798;11.770;2023-08-01T11:44:11;1.92;;;1.63;;
80494;SDS011;69819;48.798;11.770;2023-08-01T11:46:37;2.03;;;1.80;;
80494;SDS011;69819;48.798;11.770;2023-08-01T11:49:05;2.78;;;2.05;;
80494;SDS011;69819;48.798;11.770;2023-08-01T11:51:38;2.00;;;1.80;;
80494;SDS011;69819;48.798;11.770;2023-08-01T11:54:05;1.95;;;1.73;;
80494;SDS011;69819;48.798;11.770;2023-08-01T11:56:32;1.50;;;1.40;;
80494;SDS011;69819;48.798;11.770;2023-08-01T11:58:58;2.35;;;2.08;;
80494;SDS011;69819;48.798;11.770;2023-08-01T12:01:25;1.67;;;1.40;;
80494;SDS011;69819;48.798;11.770;2023-08-01T12:03:54;2.38;;;2.00;;
80494;SDS011;69819;48.798;11.770;2023-08-01T12:06:22;2.08;;;1.88;;
80494;SDS011;69819;48.798;11.770;2023-08-01T12:08:49;2.30;;;1.58;;
80494;SDS011;69819;48.798;11.770;2023-08-01T12:13:44;2.00;;;1.80;;
80494;SDS011;69819;48.798;11.770;2023-08-01T12:16:11;2.63;;;1.80;;
80494;SDS011;69819;48.798;11.770;2023-08-01T12:18:38;1.67;;;1.52;;
80494;SDS011;69819;48.798;11.770;2023-08-01T12:21:04;2.70;;;2.08;;
80494;SDS011;69819;48.798;11.770;2023-08-01T12:23:30;1.77;;;1.67;;
80494;SDS011;69819;48.798;11.770;2023-08-01T12:25:57;1.75;;;1.45;;
80494;SDS011;69819;48.798;11.770;2023-08-01T12:28:22;1.40;;;1.30;;
80494;SDS011;69819;48.798;11.770;2023-08-01T12:30:48;1.88;;;1.40;;
80494;SDS011;69819;48.798;11.770;2023-08-01T12:33:16;1.58;;;0.98;;
80494;SDS011;69819;48.798;11.770;2023-08-01T12:35:42;1.45;;;1.20;;
80494;SDS011;69819;48.798;11.770;2023-08-01T12:38:08;1.45;;;1.20;;
80494;SDS011;69819;48.798;11.770;2023-08-01T12:40:34;1.35;;;1.25;;
80494;SDS011;69819;48.798;11.770;2023-08-01T12:43:00;1.25;;;1.15;;
80494;SDS011;69819;48.798;11.770;2023-08-01T12:45:26;1.17;;;1.08;;
80494;SDS011;69819;48.798;11.770;2023-08-01T12:47:52;1.25;;;1.15;;
80494;SDS011;69819;48.798;11.770;2023-08-01T12:50:18;1.17;;;1.08;;
80494;SDS011;69819;48.798;11.770;2023-08-01T12:52:44;1.45;;;1.10;;
80494;SDS011;69819;48.798;11.770;2023-08-01T12:55:10;1.35;;;1.25;;
80494;SDS011;69819;48.798;11.770;2023-08-01T12:57:35;1.77;;;1.23;;
80494;SDS011;69819;48.798;11.770;2023-08-01T13:00:01;2.05;;;1.50;;
80494;SDS011;69819;48.798;11.770;2023-08-01T13:02:28;1.15;;;1.08;;
80494;SDS011;69819;48.798;11.770;2023-08-01T13:04:54;1.23;;;1.13;;
80494;SDS011;69819;48.798;11.770;2023-08-01T13:07:19;1.45;;;0.98;;
80494;SDS011;69819;48.798;11.770;2023-08-01T13:09:45;1.58;;;1.27;;
80494;SDS011;69819;48.798;11.770;2023-08-01T13:12:11;1.40;;;1.05;;
80494;SDS011;69819;48.798;11.770;2023-08-01T13:14:37;1.20;;;1.00;;
80494;SDS011;69819;48.798;11.770;2023-08-01T13:17:03;1.20;;;0.80;;
80494;SDS011;69819;48.798;11.770;2023-08-01T13:19:29;1.10;;;1.00;;
80494;SDS011;69819;48.798;11.770;2023-08-01T13:21:55;1.05;;;0.90;;
80494;SDS011;69819;48.798;11.770;2023-08-01T13:24:21;1.05;;;0.93;;
80494;SDS011;69819;48.798;11.770;2023-08-01T13:26:47;2.10;;;1.02;;
80494;SDS011;69819;48.798;11.770;2023-08-01T13:29:13;0.85;;;0.85;;
80494;SDS011;69819;48.798;11.770;2023-08-01T13:31:39;0.98;;;0.88;;
80494;SDS011;69819;48.798;11.770;2023-08-01T13:34:05;1.15;;;0.90;;
80494;SDS011;69819;48.798;11.770;2023-08-01T13:36:31;1.15;;;0.90;;
80494;SDS011;69819;48.798;11.770;2023-08-01T13:38:56;0.55;;;0.55;;
80494;SDS011;69819;48.798;11.770;2023-08-01T13:41:22;0.70;;;0.70;;
80494;SDS011;69819;48.798;11.770;2023-08-01T13:43:48;0.80;;;0.80;;
80494;SDS011;69819;48.798;11.770;2023-08-01T13:46:15;0.60;;;0.60;;
80494;SDS011;69819;48.798;11.770;2023-08-01T13:48:43;0.90;;;0.90;;
80494;SDS011;69819;48.798;11.770;2023-08-01T13:51:09;0.60;;;0.60;;
80494;SDS011;69819;48.798;11.770;2023-08-01T13:53:35;0.30;;;0.30;;
80494;SDS011;69819;48.798;11.770;2023-08-01T13:56:08;0.65;;;0.65;;
80494;SDS011;69819;48.798;11.770;2023-08-01T13:58:35;1.02;;;0.60;;
80494;SDS011;69819;48.798;11.770;2023-08-01T14:01:03;0.65;;;0.65;;
80494;SDS011;69819;48.798;11.770;2023-08-01T14:03:34;0.60;;;0.60;;
80494;SDS011;69819;48.798;11.770;2023-08-01T14:08:36;0.60;;;0.52;;
80494;SDS011;69819;48.798;11.770;2023-08-01T14:11:03;0.40;;;0.40;;
80494;SDS011;69819;48.798;11.770;2023-08-01T14:13:31;0.40;;;0.40;;
80494;SDS011;69819;48.798;11.770;2023-08-01T14:15:58;0.68;;;0.60;;
80494;SDS011;69819;48.798;11.770;2023-08-01T14:18:25;0.60;;;0.47;;
80494;SDS011;69819;48.798;11.770;2023-08-01T14:20:51;0.43;;;0.43;;
80494;SDS011;69819;48.798;11.770;2023-08-01T14:23:18;0.50;;;0.50;;
80494;SDS011;69819;48.798;11.770;2023-08-01T14:25:44;0.40;;;0.40;;
80494;SDS011;69819;48.798;11.770;2023-08-01T14:28:10;0.60;;;0.60;;
80494;SDS011;69819;48.798;11.770;2023-08-01T14:30:37;0.40;;;0.35;;
80494;SDS011;69819;48.798;11.770;2023-08-01T14:33:04;0.93;;;0.70;;
80494;SDS011;69819;48.798;11.770;2023-08-01T14:35:33;0.45;;;0.43;;
80494;SDS011;69819;48.798;11.770;2023-08-01T14:38:00;0.57;;;0.57;;
80494;SDS011;69819;48.798;11.770;2023-08-01T14:40:26;0.60;;;0.50;;
80494;SDS011;69819;48.798;11.770;2023-08-01T14:42:52;1.20;;;0.50;;
80494;SDS011;69819;48.798;11.770;2023-08-01T14:45:18;0.73;;;0.40;;
80494;SDS011;69819;48.798;11.770;2023-08-01T14:47:44;0.70;;;0.60;;
80494;SDS011;69819;48.798;11.770;2023-08-01T14:50:11;0.50;;;0.50;;
80494;SDS011;69819;48.798;11.770;2023-08-01T14:52:38;10.40;;;0.70;;